Time;durP1;ratioP1;P1;durP2;ratioP2;P2;SDS_P1;SDS_P2;PMS_P1;PMS_P2;Temp;Humidity;BMP_temperature;BMP_pressure;BME280_temperature;BME280_humidity;BME280_pressure;Samples;Min_cycle;Max_cycle;Signal;HPM_P1;HPM_P2
2021/11/23 00:01:18;;;;;;;8.70;6.03;;;;;;;8.82;44.91;102673.13;5059970;28;20044;-73
2021/11/23 00:03:46;;;;;;;9.90;5.95;;;;;;;8.81;44.78;102676.81;5039866;28;20068;-73
2021/11/23 00:06:12;;;;;;;9.23;6.18;;;;;;;8.80;44.75;102671.44;5058569;28;20614;-73
2021/11/23 00:08:40;;;;;;;11.27;6.60;;;;;;;8.79;44.58;102678.66;5036688;28;20099;-73
2021/11/23 00:11:07;;;;;;;10.57;6.57;;;;;;;8.78;44.51;102669.66;5058539;28;20056;-73
2021/11/23 00:13:34;;;;;;;11.07;6.40;;;;;;;8.76;44.43;102663.38;5063898;28;20079;-73
2021/11/23 00:16:00;;;;;;;12.13;6.60;;;;;;;8.73;44.70;102665.28;5052828;28;20074;-73
2021/11/23 00:18:27;;;;;;;7.82;6.07;;;;;;;8.72;44.61;102671.66;5055885;28;20431;-73
2021/11/23 00:20:54;;;;;;;9.52;6.25;;;;;;;8.70;44.67;102668.09;5057182;28;20049;-73
2021/11/23 00:23:21;;;;;;;9.68;6.55;;;;;;;8.69;44.75;102669.03;5052892;28;20052;-73
2021/11/23 00:25:47;;;;;;;10.15;6.70;;;;;;;8.67;44.73;102663.66;5060167;28;20105;-73
2021/11/23 00:28:14;;;;;;;10.20;6.88;;;;;;;8.67;44.61;102674.50;5063505;28;20053;-73
2021/11/23 00:30:43;;;;;;;9.45;6.57;;;;;;;8.65;44.77;102673.63;5071894;28;20044;-73
2021/11/23 00:33:10;;;;;;;9.63;6.55;;;;;;;8.64;44.85;102668.31;5056884;28;20557;-73
2021/11/23 00:35:37;;;;;;;9.90;6.88;;;;;;;8.63;44.89;102670.13;5054929;28;20411;-73
2021/11/23 00:38:05;;;;;;;10.00;6.85;;;;;;;8.63;45.04;102663.81;5054472;28;20543;-73
2021/11/23 00:40:32;;;;;;;9.32;6.28;;;;;;;8.60;44.95;102662.06;5059324;28;20045;-73
2021/11/23 00:43:03;;;;;;;9.52;6.55;;;;;;;8.60;44.88;102661.19;5057981;28;20568;-72
2021/11/23 00:45:35;;;;;;;11.05;6.88;;;;;;;8.62;44.69;102662.91;5054167;28;20120;-73
2021/11/23 00:48:03;;;;;;;9.75;6.40;;;;;;;8.62;44.88;102656.63;5044745;28;20060;-73
2021/11/23 00:50:32;;;;;;;8.95;6.03;;;;;;;8.62;44.64;102654.81;5052303;28;20055;-73
2021/11/23 00:52:59;;;;;;;10.65;6.63;;;;;;;8.60;44.88;102653.94;5064145;28;20179;-73
2021/11/23 00:55:28;;;;;;;10.15;6.55;;;;;;;8.60;44.80;102656.66;5054407;28;20115;-73
2021/11/23 00:57:55;;;;;;;10.18;6.30;;;;;;;8.58;44.71;102661.22;5064520;28;20057;-73
2021/11/23 01:00:21;;;;;;;10.18;6.75;;;;;;;8.58;44.62;102669.34;5070718;28;20087;-73
2021/11/23 01:02:48;;;;;;;9.68;6.70;;;;;;;8.53;44.76;102656.88;5065490;28;20447;-73
2021/11/23 01:05:15;;;;;;;7.85;6.05;;;;;;;8.49;44.61;102656.06;5045901;28;20048;-73
2021/11/23 01:07:41;;;;;;;10.10;6.93;;;;;;;8.46;44.48;102656.19;5056264;28;20514;-73
2021/11/23 01:10:10;;;;;;;8.90;6.15;;;;;;;8.43;44.76;102647.25;5044170;28;20071;-73
2021/11/23 01:12:37;;;;;;;11.32;6.88;;;;;;;8.39;44.84;102644.66;5057006;28;20515;-73
2021/11/23 01:15:05;;;;;;;11.05;6.97;;;;;;;8.37;45.21;102649.22;5057703;28;20491;-73
2021/11/23 01:17:32;;;;;;;9.63;6.72;;;;;;;8.35;45.04;102647.47;5057018;28;20056;-73
2021/11/23 01:19:59;;;;;;;10.82;7.35;;;;;;;8.33;44.89;102646.63;5059521;28;20076;-73
2021/11/23 01:22:26;;;;;;;13.48;7.22;;;;;;;8.30;45.13;102650.31;5071907;28;20087;-73
2021/11/23 01:24:53;;;;;;;11.25;6.93;;;;;;;8.28;45.11;102648.56;5055339;28;20151;-73
2021/11/23 01:27:29;;;;;;;11.20;7.50;;;;;;;8.28;45.00;102643.16;5045643;28;20044;-73
2021/11/23 01:29:56;;;;;;;11.63;7.60;;;;;;;8.22;44.89;102648.75;5067027;28;20385;-73
2021/11/23 01:32:23;;;;;;;10.05;6.40;;;;;;;8.18;45.28;102644.34;5063398;28;20131;-73
2021/11/23 01:34:51;;;;;;;13.02;7.15;;;;;;;8.15;45.21;102642.63;5056566;28;20057;-73
2021/11/23 01:37:18;;;;;;;10.90;6.72;;;;;;;8.14;45.40;102637.25;5059897;28;20050;-73
2021/11/23 01:39:44;;;;;;;11.18;6.82;;;;;;;8.12;45.65;102631.88;5062506;28;20049;-73
2021/11/23 01:42:11;;;;;;;9.75;6.68;;;;;;;8.13;45.62;102635.47;5061870;28;20044;-73
2021/11/23 01:44:38;;;;;;;10.35;6.03;;;;;;;8.14;45.54;102642.66;5061485;28;20156;-73
2021/11/23 01:47:05;;;;;;;9.95;6.75;;;;;;;8.14;45.72;102648.97;5060479;28;20154;-73
2021/11/23 01:49:31;;;;;;;11.20;6.97;;;;;;;8.15;45.54;102647.16;5061901;28;20456;-73
2021/11/23 01:51:58;;;;;;;8.27;5.80;;;;;;;8.16;45.49;102640.78;5054147;28;20072;-73
2021/11/23 01:54:25;;;;;;;10.23;7.07;;;;;;;8.17;45.59;102643.44;5048597;28;20447;-73
2021/11/23 01:56:52;;;;;;;11.40;6.65;;;;;;;8.17;45.43;102646.16;5047075;28;20052;-73
2021/11/23 01:59:18;;;;;;;10.73;7.38;;;;;;;8.19;45.69;102641.59;5062542;28;20122;-73
2021/11/23 02:01:45;;;;;;;10.45;6.70;;;;;;;8.20;45.78;102646.06;5060420;28;20503;-74
2021/11/23 02:04:12;;;;;;;11.05;7.07;;;;;;;8.21;45.56;102642.44;5066977;28;20122;-73
2021/11/23 02:06:39;;;;;;;10.45;6.85;;;;;;;8.23;45.36;102651.41;5061820;28;20186;-73
2021/11/23 02:09:06;;;;;;;10.95;7.00;;;;;;;8.24;45.38;102646.84;5039145;28;20053;-73
2021/11/23 02:11:32;;;;;;;12.77;7.43;;;;;;;8.25;45.34;102651.34;5062106;28;20048;-73
2021/11/23 02:13:59;;;;;;;11.55;6.80;;;;;;;8.26;45.67;102650.41;5065214;28;20077;-73
2021/11/23 02:16:26;;;;;;;11.02;7.03;;;;;;;8.26;45.42;102651.31;5059642;28;20049;-73
2021/11/23 02:18:53;;;;;;;10.15;6.80;;;;;;;8.27;45.39;102647.69;5066480;28;20063;-73
2021/11/23 02:21:19;;;;;;;10.35;7.55;;;;;;;8.26;45.34;102654.00;5069314;28;20045;-73
2021/11/23 02:23:46;;;;;;;11.50;7.07;;;;;;;8.26;45.47;102648.59;5070729;28;20052;-73
2021/11/23 02:26:14;;;;;;;11.15;7.03;;;;;;;8.26;45.31;102650.41;5066849;28;20076;-73
2021/11/23 02:28:41;;;;;;;11.15;7.47;;;;;;;8.25;45.40;102654.94;5065639;28;20060;-73
2021/11/23 02:31:08;;;;;;;11.32;6.85;;;;;;;8.25;45.47;102654.94;5041995;28;20048;-73
2021/11/23 02:33:40;;;;;;;11.10;6.60;;;;;;;8.24;45.39;102652.28;5056922;28;20048;-73
2021/11/23 02:36:09;;;;;;;10.75;7.00;;;;;;;8.23;45.39;102648.72;5061630;28;20056;-73
2021/11/23 02:38:37;;;;;;;11.10;6.28;;;;;;;8.23;45.42;102643.28;5070393;28;20084;-73
2021/11/23 02:41:06;;;;;;;10.65;6.38;;;;;;;8.23;45.57;102645.13;5065145;28;20045;-73
2021/11/23 02:43:33;;;;;;;9.63;6.28;;;;;;;8.23;45.21;102645.13;5066908;28;20128;-73
2021/11/23 02:46:01;;;;;;;10.43;6.43;;;;;;;8.21;45.60;102642.44;5058003;28;20060;-73
2021/11/23 02:48:28;;;;;;;10.05;6.57;;;;;;;8.23;45.57;102643.28;5053899;28;20102;-73
2021/11/23 02:51:06;;;;;;;8.63;5.97;;;;;;;8.24;45.42;102641.44;5055701;28;20045;-72
2021/11/23 02:53:33;;;;;;;9.82;6.40;;;;;;;8.24;45.60;102639.63;5067294;28;20061;-73
2021/11/23 02:56:00;;;;;;;11.32;7.20;;;;;;;8.24;45.52;102631.50;5068729;28;20060;-73
2021/11/23 02:58:29;;;;;;;12.57;7.80;;;;;;;8.25;45.40;102640.53;5058103;28;20403;-73
2021/11/23 03:01:03;;;;;;;11.23;7.28;;;;;;;8.27;45.55;102642.25;5062587;28;20332;-73
2021/11/23 03:03:30;;;;;;;11.80;6.72;;;;;;;8.25;45.40;102632.41;5057572;28;20143;-73
2021/11/23 03:05:57;;;;;;;9.98;7.00;;;;;;;8.25;45.08;102637.81;5071610;28;20454;-73
2021/11/23 03:08:24;;;;;;;12.40;7.50;;;;;;;8.25;45.13;102635.09;5064417;28;20048;-73
2021/11/23 03:10:52;;;;;;;10.80;7.32;;;;;;;8.24;45.42;102631.50;5067228;28;20466;-73
2021/11/23 03:13:19;;;;;;;10.15;6.38;;;;;;;8.23;45.27;102632.47;5065193;28;20443;-73
2021/11/23 03:15:46;;;;;;;10.13;7.10;;;;;;;8.22;45.43;102635.22;5060186;28;20056;-73
2021/11/23 03:18:14;;;;;;;10.45;6.75;;;;;;;8.23;45.27;102642.41;5063056;28;20563;-73
2021/11/23 03:20:44;;;;;;;11.10;6.72;;;;;;;8.21;45.21;102636.16;5049812;28;20044;-73
2021/11/23 03:23:11;;;;;;;11.52;7.28;;;;;;;8.22;45.39;102643.34;5068538;28;20056;-73
2021/11/23 03:25:38;;;;;;;12.30;7.18;;;;;;;8.21;45.14;102638.84;5064732;28;20052;-73
2021/11/23 03:28:05;;;;;;;11.20;6.75;;;;;;;8.21;45.29;102636.16;5061151;28;20080;-73
2021/11/23 03:30:33;;;;;;;10.63;7.40;;;;;;;8.21;45.28;102638.84;5067357;28;20651;-72
2021/11/23 03:33:02;;;;;;;10.25;7.22;;;;;;;8.21;45.27;102633.44;5064331;28;20080;-73
2021/11/23 03:35:31;;;;;;;11.73;7.05;;;;;;;8.21;45.32;102644.25;5062014;28;20052;-73
2021/11/23 03:37:58;;;;;;;11.18;7.07;;;;;;;8.20;45.13;102642.47;5043861;28;20495;-73
2021/11/23 03:40:27;;;;;;;11.90;6.78;;;;;;;8.18;45.19;102637.09;5065343;28;20041;-73
2021/11/23 03:42:55;;;;;;;10.55;6.43;;;;;;;8.18;45.25;102633.50;5061694;28;20381;-73
2021/11/23 03:45:23;;;;;;;11.52;7.05;;;;;;;8.17;45.22;102643.44;5070024;28;20078;-73
2021/11/23 03:47:50;;;;;;;10.65;7.00;;;;;;;8.15;44.91;102642.63;5058862;28;20065;-73
2021/11/23 03:50:18;;;;;;;11.35;6.85;;;;;;;8.16;45.40;102638.97;5057689;28;20067;-73
2021/11/23 03:52:46;;;;;;;10.15;6.68;;;;;;;8.15;45.46;102637.22;5052442;28;20053;-73
2021/11/23 03:55:16;;;;;;;10.10;7.07;;;;;;;8.14;45.35;102631.84;5061046;28;20045;-73
2021/11/23 03:57:47;;;;;;;9.15;6.80;;;;;;;8.14;45.49;102626.44;5053986;28;20063;-73
2021/11/23 04:00:16;;;;;;;10.23;6.35;;;;;;;8.13;45.58;102630.97;5042983;28;20055;-73
2021/11/23 04:02:43;;;;;;;12.27;6.80;;;;;;;8.11;45.52;102630.09;5068113;28;20048;-73
2021/11/23 04:05:11;;;;;;;9.77;7.07;;;;;;;8.10;45.48;102631.03;5047397;28;20049;-73
2021/11/23 04:07:40;;;;;;;12.18;7.72;;;;;;;8.11;45.63;102630.09;5068151;28;20082;-73
2021/11/23 04:10:12;;;;;;;10.52;7.32;;;;;;;8.14;45.69;102634.56;5062914;28;20044;-73
2021/11/23 04:12:39;;;;;;;12.53;7.40;;;;;;;8.09;45.92;102631.06;5058280;28;20056;-73
2021/11/23 04:15:08;;;;;;;11.05;6.80;;;;;;;8.11;45.54;102640.03;5059489;28;20213;-73
2021/11/23 04:17:35;;;;;;;12.07;6.80;;;;;;;8.09;45.63;102636.47;5060702;28;20060;-73
2021/11/23 04:20:05;;;;;;;10.43;7.32;;;;;;;8.10;45.37;102632.84;5060319;28;20103;-73
2021/11/23 04:22:32;;;;;;;12.77;7.53;;;;;;;8.07;45.73;102636.50;5058539;28;20384;-73
2021/11/23 04:24:59;;;;;;;9.98;6.57;;;;;;;8.07;45.63;102631.09;5064935;28;20070;-73
2021/11/23 04:27:27;;;;;;;12.10;7.10;;;;;;;8.07;45.88;102632.94;5067295;28;20059;-73
2021/11/23 04:29:54;;;;;;;10.35;7.00;;;;;;;8.07;45.77;102632.94;5075608;28;20044;-73
2021/11/23 04:32:20;;;;;;;10.38;7.25;;;;;;;8.08;45.84;102629.28;5060561;28;20061;-73
2021/11/23 04:34:47;;;;;;;12.27;7.88;;;;;;;8.08;46.05;102632.00;5052651;28;20049;-73
2021/11/23 04:37:15;;;;;;;11.82;7.53;;;;;;;8.08;46.16;102632.00;5059961;28;20080;-73
2021/11/23 04:39:43;;;;;;;11.50;7.22;;;;;;;8.10;46.02;102625.63;5062953;28;20052;-73
2021/11/23 04:42:12;;;;;;;11.85;7.25;;;;;;;8.12;45.91;102622.88;5061332;28;20092;-73
2021/11/23 04:44:39;;;;;;;11.25;7.40;;;;;;;8.10;46.24;102628.31;5043510;28;20064;-73
2021/11/23 04:47:05;;;;;;;12.65;7.55;;;;;;;8.10;45.96;102622.91;5064093;28;20052;-73
2021/11/23 04:49:32;;;;;;;12.55;7.32;;;;;;;8.09;45.78;102626.53;5058013;28;20453;-73
2021/11/23 04:51:58;;;;;;;13.00;8.05;;;;;;;8.10;46.33;102622.03;5066029;28;20136;-73
2021/11/23 04:54:25;;;;;;;11.35;7.28;;;;;;;8.09;46.17;102628.34;5064278;28;20048;-73
2021/11/23 04:56:52;;;;;;;13.05;8.52;;;;;;;8.08;46.19;102624.75;5056686;28;20533;-73
2021/11/23 04:59:19;;;;;;;11.75;8.35;;;;;;;8.08;46.14;102626.59;5082492;28;20052;-73
2021/11/23 05:01:45;;;;;;;12.00;7.65;;;;;;;8.07;46.23;102627.53;5067961;28;20063;-73
2021/11/23 05:04:12;;;;;;;12.57;7.82;;;;;;;8.07;46.12;102627.53;5068915;28;20106;-73
2021/11/23 05:06:39;;;;;;;11.20;7.35;;;;;;;8.05;46.31;102626.69;5052349;28;20090;-73
2021/11/23 05:09:05;;;;;;;12.32;8.25;;;;;;;8.03;46.42;102627.63;5061451;28;20558;-73
2021/11/23 05:11:35;;;;;;;12.98;7.22;;;;;;;8.02;46.19;102619.53;5062032;28;20476;-73
2021/11/23 05:14:02;;;;;;;10.98;7.78;;;;;;;8.01;46.68;102620.47;5064898;28;20056;-73
2021/11/23 05:16:29;;;;;;;10.70;8.02;;;;;;;8.00;46.70;102618.69;5065955;28;20405;-73
2021/11/23 05:18:55;;;;;;;12.55;8.23;;;;;;;7.98;46.49;102626.88;5061721;28;20064;-73
2021/11/23 05:21:22;;;;;;;9.82;7.03;;;;;;;7.98;46.64;102624.16;5056776;28;20040;-73
2021/11/23 05:23:48;;;;;;;12.20;7.72;;;;;;;7.98;46.60;102620.56;5064104;28;20100;-73
2021/11/23 05:26:16;;;;;;;11.40;7.32;;;;;;;7.97;46.71;102629.63;5042961;28;20098;-73
2021/11/23 05:29:07;;;;;;;13.50;8.00;;;;;;;7.98;46.87;102632.28;5057896;28;20052;-74
2021/11/23 05:31:34;;;;;;;12.43;7.60;;;;;;;7.95;46.71;102626.06;5057643;28;20048;-73
2021/11/23 05:34:03;;;;;;;10.30;7.35;;;;;;;7.97;46.86;102635.91;5065270;28;20106;-73
2021/11/23 05:36:35;;;;;;;11.38;7.50;;;;;;;7.97;46.82;102626.91;5062966;28;20041;-73
2021/11/23 05:39:03;;;;;;;12.38;7.93;;;;;;;7.99;46.59;102631.31;5052782;28;20435;-73
2021/11/23 05:41:29;;;;;;;11.10;7.10;;;;;;;7.98;46.86;102634.97;5052337;28;20057;-73
2021/11/23 05:43:56;;;;;;;11.93;7.05;;;;;;;8.01;47.16;102625.88;5062069;28;20080;-74
2021/11/23 05:46:23;;;;;;;10.75;7.03;;;;;;;8.02;47.01;102631.25;5063058;28;20053;-73
2021/11/23 05:48:50;;;;;;;9.80;6.63;;;;;;;8.03;46.81;102629.44;5067648;28;20061;-73
2021/11/23 05:51:16;;;;;;;11.15;7.05;;;;;;;8.06;46.79;102626.66;5061760;28;20041;-73
2021/11/23 05:53:43;;;;;;;11.15;7.65;;;;;;;8.07;46.98;102620.28;5052665;28;20098;-73
2021/11/23 05:56:10;;;;;;;11.55;7.55;;;;;;;8.10;47.09;102625.63;5065742;28;20048;-73
2021/11/23 05:58:36;;;;;;;12.40;7.60;;;;;;;8.12;46.81;102629.19;5056492;28;20052;-74
2021/11/23 06:01:05;;;;;;;10.93;7.05;;;;;;;8.15;46.93;102623.69;5045951;28;20076;-73
2021/11/23 06:03:32;;;;;;;11.98;7.13;;;;;;;8.16;46.98;102632.66;5054550;28;20060;-69
2021/11/23 06:05:59;;;;;;;12.57;7.10;;;;;;;8.17;47.06;102629.91;5053723;28;20059;-69
2021/11/23 06:08:26;;;;;;;12.20;7.78;;;;;;;8.18;47.20;102629.00;5060717;28;20041;-74
2021/11/23 06:10:53;;;;;;;12.52;7.50;;;;;;;8.21;47.22;102636.16;5042591;28;20045;-74
2021/11/23 06:13:21;;;;;;;11.55;6.95;;;;;;;8.21;47.06;102628.91;5059859;28;20562;-73
2021/11/23 06:15:48;;;;;;;11.40;7.28;;;;;;;8.24;47.14;102630.63;5058419;28;20073;-74
2021/11/23 06:18:15;;;;;;;12.40;7.25;;;;;;;8.27;47.20;102623.31;5069699;28;20676;-74
2021/11/23 06:20:43;;;;;;;10.38;7.03;;;;;;;8.30;47.22;102622.34;5068751;28;20403;-74
2021/11/23 06:23:11;;;;;;;11.32;6.82;;;;;;;8.32;47.24;102615.97;5047740;28;20080;-74
2021/11/23 06:25:38;;;;;;;12.30;7.15;;;;;;;8.34;47.30;102622.25;5061214;28;20543;-74
2021/11/23 06:28:04;;;;;;;10.15;6.43;;;;;;;8.37;47.25;102629.38;5062454;28;20092;-74
2021/11/23 06:30:31;;;;;;;11.40;7.05;;;;;;;8.39;47.09;102627.53;5058058;28;20136;-74
2021/11/23 06:32:58;;;;;;;11.15;7.20;;;;;;;8.41;47.18;102628.34;5052499;28;20105;-74
2021/11/23 06:35:24;;;;;;;11.63;7.22;;;;;;;8.45;47.20;102634.56;5057864;28;20381;-74
2021/11/23 06:37:51;;;;;;;11.73;7.43;;;;;;;8.46;47.11;102634.53;5058973;28;20056;-74
2021/11/23 06:40:18;;;;;;;12.10;7.90;;;;;;;8.48;47.16;102643.50;5053137;28;20134;-74
2021/11/23 06:42:44;;;;;;;13.35;7.80;;;;;;;8.48;47.06;102632.69;5042780;28;20392;-73
2021/11/23 06:45:13;;;;;;;14.15;8.25;;;;;;;8.49;47.14;102644.34;5061781;28;20533;-68
2021/11/23 06:47:40;;;;;;;11.20;6.78;;;;;;;8.50;46.98;102649.72;5066391;28;20048;-68
2021/11/23 06:50:08;;;;;;;12.10;7.57;;;;;;;8.50;47.23;102648.84;5071313;28;20053;-74
2021/11/23 06:52:35;;;;;;;12.25;7.50;;;;;;;8.50;47.09;102643.44;5068719;28;20495;-75
2021/11/23 06:55:02;;;;;;;11.65;8.00;;;;;;;8.52;46.99;102649.69;5066438;28;20376;-75
2021/11/23 06:57:29;;;;;;;10.02;7.00;;;;;;;8.52;47.27;102652.41;5063140;28;20098;-75
2021/11/23 07:00:09;;;;;;;11.65;7.13;;;;;;;8.55;47.49;102658.63;5069242;28;20048;-74
2021/11/23 07:02:36;;;;;;;13.27;8.13;;;;;;;8.54;47.25;102661.38;5054389;28;20048;-75
2021/11/23 07:05:04;;;;;;;11.43;7.50;;;;;;;8.55;47.06;102664.03;5063577;28;20086;-75
2021/11/23 07:07:31;;;;;;;11.77;7.70;;;;;;;8.55;47.34;102660.44;5054128;28;20045;-75
2021/11/23 07:10:03;;;;;;;12.85;8.05;;;;;;;8.57;46.95;102659.44;5058433;28;20095;-75
2021/11/23 07:12:50;;;;;;;10.57;6.97;;;;;;;8.53;47.40;102662.31;5057529;28;20048;-75
2021/11/23 07:15:17;;;;;;;11.60;7.47;;;;;;;8.55;47.31;102665.84;5063766;28;20303;-75
2021/11/23 07:17:43;;;;;;;12.60;7.43;;;;;;;8.55;47.39;102669.47;5068080;28;20052;-76
2021/11/23 07:20:10;;;;;;;11.90;8.05;;;;;;;8.57;47.43;102670.28;5069842;28;20060;-76
2021/11/23 07:22:37;;;;;;;11.88;8.02;;;;;;;8.56;47.27;102673.94;5066096;28;20126;-76
2021/11/23 07:25:04;;;;;;;12.30;8.10;;;;;;;8.57;46.88;102672.09;5053676;28;20503;-76
2021/11/23 07:27:32;;;;;;;13.18;7.65;;;;;;;8.57;47.30;102678.41;5066475;28;20139;-76
2021/11/23 07:29:58;;;;;;;12.98;7.97;;;;;;;8.57;47.37;102677.50;5040365;28;20049;-77
2021/11/23 07:32:25;;;;;;;12.88;8.27;;;;;;;8.56;47.46;102682.06;5060754;28;20543;-75
2021/11/23 07:34:52;;;;;;;11.93;7.75;;;;;;;8.58;47.50;102687.41;5060705;28;20048;-75
2021/11/23 07:37:18;;;;;;;12.85;8.65;;;;;;;8.58;47.58;102687.41;5053848;28;20080;-75
2021/11/23 07:39:48;;;;;;;13.07;8.15;;;;;;;8.60;47.34;102683.72;5057271;28;20049;-76
2021/11/23 07:42:14;;;;;;;12.27;7.80;;;;;;;8.58;47.40;102682.00;5053377;28;20416;-75
2021/11/23 07:44:41;;;;;;;11.98;8.32;;;;;;;8.58;47.43;102679.28;5056373;28;20128;-75
2021/11/23 07:47:09;;;;;;;13.02;8.73;;;;;;;8.59;47.93;102683.78;5065944;28;20118;-75
2021/11/23 07:49:36;;;;;;;12.10;7.65;;;;;;;8.59;47.62;102679.25;5069729;28;20459;-75
2021/11/23 07:52:03;;;;;;;12.15;8.40;;;;;;;8.60;47.81;102680.13;5068834;28;20063;-75
2021/11/23 07:54:30;;;;;;;14.32;9.15;;;;;;;8.61;47.82;102682.81;5053142;28;20135;-75
2021/11/23 07:56:57;;;;;;;12.38;7.95;;;;;;;8.63;47.64;102686.34;5069971;28;20056;-75
2021/11/23 07:59:23;;;;;;;12.57;8.38;;;;;;;8.66;47.71;102690.78;5089574;28;20056;-75
2021/11/23 08:01:51;;;;;;;11.23;7.25;;;;;;;8.66;47.59;102685.34;5089072;28;20480;-74
2021/11/23 08:04:18;;;;;;;13.02;7.93;;;;;;;8.68;47.83;102687.09;5081932;28;20115;-74
2021/11/23 08:06:44;;;;;;;13.50;8.35;;;;;;;8.70;47.86;102684.34;5069257;28;20733;-75
2021/11/23 08:09:11;;;;;;;13.63;8.50;;;;;;;8.72;47.85;102693.31;5052478;28;20053;-75
2021/11/23 08:11:38;;;;;;;11.40;7.95;;;;;;;8.72;47.64;102699.63;5051958;28;20094;-74
2021/11/23 08:14:04;;;;;;;14.60;8.93;;;;;;;8.71;47.77;102700.56;5069483;28;20510;-74
2021/11/23 08:16:31;;;;;;;13.15;8.48;;;;;;;8.70;47.81;102693.38;5048955;28;20078;-74
2021/11/23 08:18:57;;;;;;;14.90;9.27;;;;;;;8.71;47.75;102695.16;5049374;28;20575;-74
2021/11/23 08:21:25;;;;;;;13.63;8.80;;;;;;;8.72;47.72;102698.75;5031812;28;20072;-74
2021/11/23 08:23:52;;;;;;;12.18;8.27;;;;;;;8.71;47.78;102691.53;5051975;28;20057;-74
2021/11/23 08:26:18;;;;;;;13.48;8.32;;;;;;;8.70;47.77;102703.31;5069447;28;20091;-75
2021/11/23 08:28:46;;;;;;;11.13;7.38;;;;;;;8.70;47.77;102692.47;5069020;28;20106;-74
2021/11/23 08:31:12;;;;;;;13.73;8.43;;;;;;;8.70;47.84;102692.47;5087136;28;20386;-74
2021/11/23 08:33:43;;;;;;;10.75;7.47;;;;;;;8.71;48.02;102705.09;5088988;28;20131;-75
2021/11/23 08:36:10;;;;;;;13.13;7.93;;;;;;;8.71;48.03;102696.97;5072113;28;20082;-75
2021/11/23 08:38:37;;;;;;;13.15;7.97;;;;;;;8.72;47.80;102712.28;5089404;28;20418;-75
2021/11/23 08:41:05;;;;;;;14.57;8.35;;;;;;;8.72;48.05;102709.56;5070856;28;20051;-74
2021/11/23 08:43:31;;;;;;;12.80;7.55;;;;;;;8.73;48.09;102709.50;5068731;28;20072;-75
2021/11/23 08:45:58;;;;;;;15.90;9.90;;;;;;;8.74;48.00;102710.38;5065632;28;20483;-74
2021/11/23 08:48:25;;;;;;;13.98;8.80;;;;;;;8.75;48.22;102714.88;5067761;28;20055;-75
2021/11/23 08:50:52;;;;;;;15.50;8.40;;;;;;;8.76;48.06;102712.13;5068683;28;20099;-75
2021/11/23 08:53:19;;;;;;;14.05;8.38;;;;;;;8.80;48.29;102706.63;5068020;28;20458;-75
2021/11/23 08:55:45;;;;;;;15.05;9.00;;;;;;;8.82;48.48;102712.88;5069089;28;20105;-75
2021/11/23 08:58:12;;;;;;;14.77;8.70;;;;;;;8.84;48.29;102714.59;5057775;28;20103;-75
2021/11/23 09:00:41;;;;;;;15.30;9.65;;;;;;;8.87;48.37;102719.06;5076443;28;20131;-74
2021/11/23 09:03:08;;;;;;;13.63;8.77;;;;;;;8.89;48.23;102719.91;5068394;28;20147;-75
2021/11/23 09:05:36;;;;;;;13.63;8.23;;;;;;;8.90;48.52;102711.69;5069551;28;20075;-75
2021/11/23 09:08:05;;;;;;;15.65;9.25;;;;;;;8.93;48.45;102711.63;5069108;28;20064;-75
2021/11/23 09:10:36;;;;;;;13.20;8.52;;;;;;;8.96;48.38;102710.66;5051063;28;20553;-75
2021/11/23 09:13:04;;;;;;;14.45;8.13;;;;;;;8.97;48.36;102707.91;5068589;28;20190;-74
2021/11/23 09:15:31;;;;;;;14.27;9.07;;;;;;;9.00;48.60;102717.72;5069865;28;20091;-75
2021/11/23 09:18:00;;;;;;;13.27;9.02;;;;;;;9.02;48.38;102710.47;5055501;28;20067;-74
2021/11/23 09:20:35;;;;;;;15.75;9.00;;;;;;;9.06;48.51;102712.13;5068567;28;20044;-75
2021/11/23 09:23:04;;;;;;;13.25;7.95;;;;;;;9.08;48.36;102712.97;5068900;28;20055;-75
2021/11/23 09:25:31;;;;;;;11.60;7.97;;;;;;;9.09;48.27;102712.03;5069971;28;20082;-75
2021/11/23 09:28:01;;;;;;;14.80;9.10;;;;;;;9.12;48.41;102711.94;5054788;28;20060;-75
2021/11/23 09:30:29;;;;;;;15.75;9.32;;;;;;;9.15;48.61;102714.53;5065195;28;20114;-75
2021/11/23 09:32:59;;;;;;;14.35;8.80;;;;;;;9.18;48.41;102719.88;5068489;28;20059;-74
2021/11/23 09:35:27;;;;;;;15.38;9.15;;;;;;;9.19;48.29;102716.25;5069538;28;20127;-75
2021/11/23 09:37:55;;;;;;;13.20;8.55;;;;;;;9.22;48.50;102717.97;5068339;28;20564;-75
2021/11/23 09:40:22;;;;;;;14.45;9.07;;;;;;;9.22;48.44;102710.75;5068821;28;20052;-75
2021/11/23 09:42:49;;;;;;;13.43;8.68;;;;;;;9.24;48.23;102711.53;5072425;28;20056;-75
2021/11/23 09:45:17;;;;;;;13.45;9.00;;;;;;;9.26;48.29;102712.41;5073026;28;20285;-75
2021/11/23 09:47:44;;;;;;;15.45;9.48;;;;;;;9.28;48.63;102715.06;5071067;28;20068;-75
2021/11/23 09:50:11;;;;;;;18.30;9.88;;;;;;;9.29;48.32;102720.44;5072612;28;20060;-75
2021/11/23 09:52:38;;;;;;;15.68;9.48;;;;;;;9.31;48.32;102709.53;5072275;28;20135;-75
2021/11/23 09:55:06;;;;;;;15.05;9.55;;;;;;;9.33;48.47;102718.50;5073413;28;20048;-75
2021/11/23 09:57:33;;;;;;;16.27;9.27;;;;;;;9.33;48.41;102718.50;5081324;28;20052;-75
2021/11/23 10:00:00;;;;;;;14.52;8.88;;;;;;;9.35;48.56;102713.94;5076772;28;20135;-75
2021/11/23 10:02:30;;;;;;;15.80;8.82;;;;;;;9.36;48.52;102719.31;5072643;28;20049;-75
2021/11/23 10:05:00;;;;;;;16.95;9.90;;;;;;;9.38;48.48;102724.69;5055043;28;20053;-75
2021/11/23 10:07:35;;;;;;;16.85;9.50;;;;;;;9.40;48.63;102717.38;5071776;28;20106;-75
2021/11/23 10:10:27;;;;;;;15.60;9.07;;;;;;;9.38;48.76;102717.44;5072400;28;20507;-75
2021/11/23 10:12:59;;;;;;;15.18;8.90;;;;;;;9.39;48.70;102712.88;5034073;28;20052;-75
2021/11/23 10:15:30;;;;;;;14.23;8.50;;;;;;;9.37;48.74;102712.94;5056260;28;20185;-75
2021/11/23 10:18:21;;;;;;;13.77;8.05;;;;;;;9.40;48.25;102712.84;5053422;28;20495;-75
2021/11/23 10:20:51;;;;;;;14.85;9.32;;;;;;;9.41;48.59;102714.59;5054081;28;20053;-75
2021/11/23 10:23:27;;;;;;;17.58;11.30;;;;;;;9.41;48.48;102714.59;5071299;28;20062;-75
2021/11/23 10:26:05;;;;;;;19.70;11.50;;;;;;;9.45;48.82;102710.88;5072685;28;20110;-75
2021/11/23 10:28:32;;;;;;;16.90;10.32;;;;;;;9.44;48.69;102717.22;5061966;28;20047;-76
2021/11/23 10:31:01;;;;;;;14.95;9.70;;;;;;;9.47;48.70;102702.69;5087271;28;20466;-75
2021/11/23 10:33:32;;;;;;;18.73;11.10;;;;;;;9.48;48.77;102699.03;5071486;28;20052;-75
2021/11/23 10:36:05;;;;;;;16.23;10.20;;;;;;;9.48;48.72;102704.44;5072629;28;20139;-75
2021/11/23 10:38:33;;;;;;;15.23;10.68;;;;;;;9.47;48.87;102700.84;5053236;28;20126;-75
2021/11/23 10:41:05;;;;;;;16.27;9.82;;;;;;;9.49;48.92;102704.41;5070354;28;20053;-75
2021/11/23 10:43:38;;;;;;;15.40;9.63;;;;;;;9.48;48.81;102699.91;5070850;28;20114;-75
2021/11/23 10:46:22;;;;;;;18.88;9.98;;;;;;;9.48;49.25;102699.03;5071021;28;20076;-74
2021/11/23 10:48:53;;;;;;;15.73;9.75;;;;;;;9.48;49.18;102699.91;5053323;28;20048;-75
2021/11/23 10:51:22;;;;;;;14.85;10.10;;;;;;;9.48;48.90;102699.03;5052874;28;20479;-75
2021/11/23 10:53:49;;;;;;;16.08;9.85;;;;;;;9.50;48.91;102700.75;5070848;28;20049;-75
2021/11/23 10:56:19;;;;;;;19.02;11.02;;;;;;;9.52;49.13;102703.44;5071696;28;20185;-75
2021/11/23 10:58:48;;;;;;;16.95;10.90;;;;;;;9.52;49.22;102707.03;5084446;28;20503;-76
2021/11/23 11:01:17;;;;;;;17.30;10.25;;;;;;;9.54;48.99;102705.16;5072196;28;20097;-75
2021/11/23 11:03:45;;;;;;;18.48;11.02;;;;;;;9.54;48.98;102702.44;5050542;28;20063;-76
2021/11/23 11:06:11;;;;;;;15.43;10.30;;;;;;;9.56;49.13;102696.94;5069087;28;20082;-76
2021/11/23 11:08:45;;;;;;;16.80;10.48;;;;;;;9.60;49.41;102687.78;5058003;28;20619;-76
2021/11/23 11:11:17;;;;;;;15.73;10.02;;;;;;;9.59;49.02;102690.53;5066867;28;20106;-76
2021/11/23 11:13:51;;;;;;;15.13;9.68;;;;;;;9.61;49.14;102686.84;5056393;28;20044;-76
2021/11/23 11:16:21;;;;;;;17.80;11.02;;;;;;;9.62;49.04;102694.06;5060929;28;20146;-75
2021/11/23 11:19:11;;;;;;;18.15;9.77;;;;;;;9.65;49.26;102690.31;5018600;28;20119;-76
2021/11/23 11:21:41;;;;;;;18.60;11.07;;;;;;;9.62;49.23;102682.31;5058040;28;20053;-76
2021/11/23 11:24:43;;;;;;;15.48;9.63;;;;;;;9.65;49.62;102688.50;5063382;28;20564;-76
2021/11/23 11:27:31;;;;;;;16.52;10.02;;;;;;;9.63;49.81;102690.41;5060377;28;20045;-76
2021/11/23 11:30:32;;;;;;;13.80;9.07;;;;;;;9.63;49.42;102682.28;5057827;28;20464;-75
2021/11/23 11:33:13;;;;;;;15.40;9.43;;;;;;;9.67;49.45;102683.03;5065782;28;20072;-75